createdAt,value
2023-01-13T00:00:41.235Z,5.7
2023-01-13T00:01:48.295Z,5.2
2023-01-13T00:02:55.369Z,4.8
2023-01-13T00:04:02.677Z,6.4
2023-01-13T00:05:09.777Z,6.7
2023-01-13T00:06:16.826Z,5.3
2023-01-13T00:07:23.967Z,6.1
2023-01-13T00:08:31.085Z,6.2
2023-01-13T00:09:38.230Z,5.6
2023-01-13T00:10:45.382Z,5.2
2023-01-13T00:11:52.550Z,5.8
2023-01-13T00:12:59.618Z,5.5
2023-01-13T00:14:06.703Z,5.4
2023-01-13T00:15:13.823Z,6
2023-01-13T00:16:21.109Z,5
2023-01-13T00:17:28.282Z,5.4
2023-01-13T00:18:35.290Z,4.6
2023-01-13T00:19:42.358Z,5
2023-01-13T00:20:49.033Z,5.4
2023-01-13T00:22:06.408Z,7.2
2023-01-13T00:23:13.601Z,5
2023-01-13T00:24:20.593Z,5.5
2023-01-13T00:25:27.750Z,6.8
2023-01-13T00:26:34.833Z,6.5
2023-01-13T00:27:41.988Z,5.4
2023-01-13T00:28:49.154Z,4.9
2023-01-13T00:29:59.605Z,5.2
2023-01-13T00:31:06.533Z,5.8
2023-01-13T00:32:21.284Z,5.3
2023-01-13T00:33:28.441Z,5.5
2023-01-13T00:34:35.553Z,4.9
2023-01-13T00:35:42.673Z,5.5
2023-01-13T00:36:49.717Z,6.1
2023-01-13T00:37:56.876Z,5.8
2023-01-13T00:39:04.021Z,5.8
2023-01-13T00:40:11.227Z,5.4
2023-01-13T00:41:18.424Z,5.3
2023-01-13T00:42:25.577Z,5.7
2023-01-13T00:43:37.663Z,5.5
2023-01-13T00:44:44.776Z,5.8
2023-01-13T00:45:51.815Z,6.6
2023-01-13T00:46:58.979Z,6.2
2023-01-13T00:48:05.637Z,5
2023-01-13T00:49:12.822Z,5.7
2023-01-13T00:50:19.886Z,5.6
2023-01-13T00:51:26.968Z,5.4
2023-01-13T00:52:34.120Z,6
2023-01-13T00:53:41.146Z,5.1
2023-01-13T00:54:47.842Z,5.3
2023-01-13T00:55:54.954Z,5.9
2023-01-13T00:57:04.678Z,4.9
2023-01-13T00:58:11.730Z,5.1
2023-01-13T00:59:18.799Z,5.9
2023-01-13T01:00:25.939Z,4.9
2023-01-13T01:01:33.168Z,4.9
2023-01-13T01:02:40.251Z,5.2
2023-01-13T01:03:47.325Z,5.9
2023-01-13T01:04:54.432Z,5.8
2023-01-13T01:06:01.517Z,6.3
2023-01-13T01:07:11.664Z,5.2
2023-01-13T01:08:18.786Z,4.9
2023-01-13T01:09:25.927Z,6
2023-01-13T01:10:33.178Z,6.9
2023-01-13T01:11:40.121Z,5.5
2023-01-13T01:12:48.140Z,5.5
2023-01-13T01:13:55.392Z,5.3
2023-01-13T01:15:02.429Z,5.4
2023-01-13T01:16:09.722Z,5.2
2023-01-13T01:17:16.838Z,5.2
2023-01-13T01:18:24.045Z,6.1
2023-01-13T01:19:30.929Z,5.3
2023-01-13T01:20:38.094Z,7.4
2023-01-13T01:21:45.264Z,5.9
2023-01-13T01:22:52.346Z,7.5
2023-01-13T01:23:59.481Z,5.6
2023-01-13T01:25:06.696Z,5.7
2023-01-13T01:26:13.718Z,6.3
2023-01-13T01:27:20.870Z,5
2023-01-13T01:28:28.021Z,7.1
2023-01-13T01:29:35.088Z,6
2023-01-13T01:30:42.233Z,5.5
2023-01-13T01:31:49.348Z,5.8
2023-01-13T01:32:56.461Z,7
2023-01-13T01:34:03.588Z,6
2023-01-13T01:35:10.728Z,6.5
2023-01-13T01:36:17.546Z,6.5
2023-01-13T01:37:24.613Z,6.1
2023-01-13T01:38:31.586Z,6.1
2023-01-13T01:39:38.684Z,6.9
2023-01-13T01:40:45.341Z,6
2023-01-13T01:41:51.985Z,5.7
2023-01-13T01:43:04.187Z,6.2
2023-01-13T01:44:19.456Z,6
2023-01-13T01:45:36.728Z,5.9
2023-01-13T01:46:43.993Z,5.7
2023-01-13T01:47:51.015Z,6
2023-01-13T01:48:58.058Z,6.3
2023-01-13T01:50:05.242Z,6.3
2023-01-13T01:51:12.397Z,6.6
2023-01-13T01:52:19.436Z,5.8
2023-01-13T01:53:29.152Z,6.1
2023-01-13T01:54:36.225Z,5.8
2023-01-13T01:55:45.813Z,5.8
2023-01-13T01:56:53.041Z,6.8
2023-01-13T01:58:00.133Z,6.1
2023-01-13T01:59:12.569Z,6.7
2023-01-13T02:00:19.492Z,5.4
2023-01-13T02:01:26.654Z,5.5
2023-01-13T02:02:33.816Z,5.4
2023-01-13T02:03:40.749Z,6.1
2023-01-13T02:04:47.989Z,5.9
2023-01-13T02:05:55.026Z,5.8
2023-01-13T02:07:02.192Z,6.2
2023-01-13T02:08:09.277Z,6.5
2023-01-13T02:09:16.513Z,6.1
2023-01-13T02:10:23.530Z,6.7
2023-01-13T02:11:30.237Z,5.9
2023-01-13T02:12:42.414Z,7.4
2023-01-13T02:13:49.688Z,9
2023-01-13T02:14:56.709Z,6
2023-01-13T02:16:11.994Z,5.9
2023-01-13T02:17:19.203Z,5.9
2023-01-13T02:18:29.228Z,6.8
2023-01-13T02:19:41.422Z,6.1
2023-01-13T02:20:53.669Z,5.5
2023-01-13T02:22:11.009Z,5.5
2023-01-13T02:23:25.808Z,6
2023-01-13T02:24:48.145Z,5.7
2023-01-13T02:25:58.346Z,6.4
2023-01-13T02:27:15.716Z,6.1
2023-01-13T02:28:27.800Z,5.7
2023-01-13T02:29:39.994Z,6.2
2023-01-13T02:30:54.753Z,6.2
2023-01-13T02:32:07.032Z,6.4
2023-01-13T02:33:17.185Z,6
2023-01-13T02:34:31.815Z,5.9
2023-01-13T02:35:41.572Z,6
2023-01-13T02:36:54.274Z,6.3
2023-01-13T02:38:00.899Z,5.6
2023-01-13T02:39:08.039Z,5.7
2023-01-13T02:40:18.284Z,6.6
2023-01-13T02:41:30.397Z,6.3
2023-01-13T02:42:47.777Z,6.9
2023-01-13T02:44:03.012Z,6.2
2023-01-13T02:45:10.185Z,5.6
2023-01-13T02:46:19.860Z,5.6
2023-01-13T02:47:26.959Z,6.9
2023-01-13T02:48:33.984Z,5.9
2023-01-13T02:49:41.090Z,6.3
2023-01-13T02:50:48.342Z,7
2023-01-13T02:51:57.953Z,7.7
2023-01-13T02:53:10.172Z,6.6
2023-01-13T02:54:25.008Z,5.1
2023-01-13T02:55:32.223Z,6.2
2023-01-13T02:56:39.164Z,7.1
2023-01-13T02:57:46.341Z,5.8
2023-01-13T02:58:53.508Z,6
2023-01-13T03:00:00.611Z,5.2
2023-01-13T03:01:07.966Z,5.2
2023-01-13T03:02:14.949Z,6.6
2023-01-13T03:03:21.929Z,6.9
2023-01-13T03:04:28.998Z,6.6
2023-01-13T03:05:46.509Z,6.4
2023-01-13T03:06:53.486Z,5.2
2023-01-13T03:08:05.797Z,5.9
2023-01-13T03:09:18.076Z,5.7
2023-01-13T03:10:30.111Z,5.9
2023-01-13T03:11:44.950Z,6.2
2023-01-13T03:12:55.098Z,6.7
2023-01-13T03:14:10.361Z,6.1
2023-01-13T03:15:22.537Z,5.8
2023-01-13T03:16:37.336Z,6
2023-01-13T03:17:52.565Z,5.8
2023-01-13T03:19:07.856Z,6.9
2023-01-13T03:20:17.576Z,5.2
2023-01-13T03:21:24.690Z,6.8
2023-01-13T03:22:31.780Z,6.4
2023-01-13T03:23:43.966Z,5.9
2023-01-13T03:24:53.751Z,6.1
2023-01-13T03:26:00.806Z,7.7
2023-01-13T03:27:15.589Z,8.3
2023-01-13T03:28:32.801Z,7.6
2023-01-13T03:29:40.000Z,5.9
2023-01-13T03:30:50.142Z,6.6
2023-01-13T03:31:57.237Z,6.8
2023-01-13T03:33:04.292Z,8.6
2023-01-13T03:34:19.149Z,7.6
2023-01-13T03:35:26.266Z,7.3
2023-01-13T03:36:39.502Z,7.1
2023-01-13T03:37:46.486Z,7.8
2023-01-13T03:38:53.572Z,7.6
2023-01-13T03:40:00.778Z,7.4
2023-01-13T03:41:10.955Z,6.4
2023-01-13T03:42:20.612Z,6.4
2023-01-13T03:43:27.265Z,7.4
2023-01-13T03:44:45.558Z,6.3
2023-01-13T03:45:52.652Z,6.5
2023-01-13T03:46:59.797Z,6.7
2023-01-13T03:48:06.877Z,7.2
2023-01-13T03:49:13.998Z,7.7
2023-01-13T03:50:20.792Z,7.1
2023-01-13T03:51:30.805Z,6.2
2023-01-13T03:52:38.014Z,6.3
2023-01-13T03:53:47.649Z,6.2
2023-01-13T03:54:54.756Z,7
2023-01-13T03:56:01.865Z,6.8
2023-01-13T03:57:09.079Z,6.6
2023-01-13T03:58:16.306Z,5.2
2023-01-13T03:59:33.379Z,6.7
2023-01-13T04:00:40.513Z,6.4
2023-01-13T04:01:47.828Z,6.8
2023-01-13T04:02:54.771Z,6.9
2023-01-13T04:04:04.519Z,7.1
2023-01-13T04:05:11.661Z,6.3
2023-01-13T04:06:18.757Z,6.2
2023-01-13T04:07:28.501Z,6.8
2023-01-13T04:08:40.754Z,5.5
2023-01-13T04:09:47.786Z,6.5
2023-01-13T04:10:54.981Z,6.2
2023-01-13T04:12:07.211Z,6.5
2023-01-13T04:13:14.353Z,6.3
2023-01-13T04:14:21.383Z,5.8
2023-01-13T04:15:28.635Z,6.6
2023-01-13T04:16:43.803Z,6
2023-01-13T04:17:50.935Z,6.8
2023-01-13T04:18:58.025Z,7.1
2023-01-13T04:20:05.233Z,6.8
2023-01-13T04:21:12.405Z,5.4
2023-01-13T04:22:19.493Z,7.8
2023-01-13T04:23:26.666Z,7.4
2023-01-13T04:24:33.661Z,7.7
2023-01-13T04:25:40.872Z,8.2
2023-01-13T04:26:48.032Z,8
2023-01-13T04:27:55.120Z,7.1
2023-01-13T04:29:02.297Z,6.9
2023-01-13T04:30:09.446Z,7.5
2023-01-13T04:31:16.565Z,7.4
2023-01-13T04:32:23.645Z,7.1
2023-01-13T04:33:30.738Z,6.6
2023-01-13T04:34:37.902Z,7.2
2023-01-13T04:35:45.006Z,6.3
2023-01-13T04:36:52.046Z,8.3
2023-01-13T04:37:59.198Z,6.4
2023-01-13T04:39:08.869Z,8.2
2023-01-13T04:40:16.008Z,6.9
2023-01-13T04:41:23.246Z,8.4
2023-01-13T04:42:30.313Z,8.1
2023-01-13T04:43:37.289Z,6.8
2023-01-13T04:44:44.485Z,7.1
2023-01-13T04:45:51.658Z,7.1
2023-01-13T04:46:58.788Z,7.4
2023-01-13T04:48:05.913Z,7
2023-01-13T04:49:13.050Z,7.2
2023-01-13T04:50:20.119Z,7.7
2023-01-13T04:51:27.175Z,6.4
2023-01-13T04:52:34.253Z,6.6
2023-01-13T04:53:41.597Z,7.4
2023-01-13T04:54:48.597Z,5.8
2023-01-13T04:55:55.597Z,6.3
2023-01-13T04:57:02.779Z,7.5
2023-01-13T04:58:09.927Z,6.8
2023-01-13T04:59:16.984Z,7.3
2023-01-13T05:00:24.267Z,7.1
2023-01-13T05:01:31.331Z,6.7
2023-01-13T05:02:38.369Z,7.2
2023-01-13T05:03:45.525Z,6.5
2023-01-13T05:04:52.719Z,6.8
2023-01-13T05:05:59.826Z,7.2
2023-01-13T05:07:06.952Z,6.7
2023-01-13T05:08:13.999Z,7.2
2023-01-13T05:09:21.214Z,8.3
2023-01-13T05:10:28.297Z,6.8
2023-01-13T05:11:35.473Z,8
2023-01-13T05:12:47.589Z,6.4
2023-01-13T05:13:59.834Z,6.3
2023-01-13T05:15:11.949Z,7
2023-01-13T05:16:24.190Z,6.5
2023-01-13T05:17:36.395Z,7.5
2023-01-13T05:18:43.664Z,6.2
2023-01-13T05:19:50.613Z,7.3
2023-01-13T05:20:57.686Z,7.3
2023-01-13T05:22:04.773Z,7.8
2023-01-13T05:23:16.664Z,6.3
2023-01-13T05:24:28.753Z,6.5
2023-01-13T05:25:42.851Z,7.4
2023-01-13T05:26:48.125Z,6.1
2023-01-13T05:27:55.145Z,7.5
2023-01-13T05:29:02.336Z,9
2023-01-13T05:30:09.074Z,6
2023-01-13T05:31:16.129Z,7.4
2023-01-13T05:32:23.323Z,6.5
2023-01-13T05:33:30.356Z,5.9
2023-01-13T05:34:37.501Z,7.2
2023-01-13T05:35:44.509Z,6.7
2023-01-13T05:36:51.665Z,6.6
2023-01-13T05:37:58.830Z,7
2023-01-13T05:39:06.139Z,7.4
2023-01-13T05:40:13.081Z,6.8
2023-01-13T05:41:25.315Z,7.8
2023-01-13T05:42:37.449Z,5.7
2023-01-13T05:43:49.554Z,5.4
2023-01-13T05:44:56.821Z,7
2023-01-13T05:46:04.109Z,5.7
2023-01-13T05:47:10.966Z,5.8
2023-01-13T05:48:18.110Z,5.6
2023-01-13T05:49:25.267Z,6.5
2023-01-13T05:50:32.319Z,6.1
2023-01-13T05:51:39.470Z,7
2023-01-13T05:52:46.549Z,6.4
2023-01-13T05:53:53.661Z,7
2023-01-13T05:55:00.771Z,5.4
2023-01-13T05:56:07.961Z,8.2
2023-01-13T05:57:15.058Z,6.7
2023-01-13T05:58:21.808Z,7.6
2023-01-13T05:59:28.885Z,7.4
2023-01-13T06:00:35.917Z,7.2
2023-01-13T06:01:43.079Z,7.6
2023-01-13T06:02:50.373Z,7.2
2023-01-13T06:03:57.373Z,7.7
2023-01-13T06:05:04.639Z,7.4
2023-01-13T06:06:11.641Z,8
2023-01-13T06:07:18.726Z,7.1
2023-01-13T06:08:25.329Z,7.1
2023-01-13T06:09:32.550Z,10.3
2023-01-13T06:10:39.632Z,7.8
2023-01-13T06:11:46.777Z,8.4
2023-01-13T06:12:53.873Z,8.8
2023-01-13T06:14:00.956Z,8.3
2023-01-13T06:15:08.165Z,7.7
2023-01-13T06:16:15.315Z,7.1
2023-01-13T06:17:22.407Z,9
2023-01-13T06:18:29.485Z,7.8
2023-01-13T06:19:36.571Z,7.3
2023-01-13T06:20:43.748Z,8.1
2023-01-13T06:21:50.765Z,8.5
2023-01-13T06:22:58.269Z,7.3
2023-01-13T06:24:05.345Z,8.4
2023-01-13T06:25:12.255Z,7.1
2023-01-13T06:26:24.645Z,7
2023-01-13T06:27:31.513Z,6.7
2023-01-13T06:28:38.631Z,6.4
2023-01-13T06:29:45.826Z,8.3
2023-01-13T06:30:52.887Z,7.6
2023-01-13T06:32:00.125Z,7.6
2023-01-13T06:33:07.157Z,7.8
2023-01-13T06:34:15.294Z,5.8
2023-01-13T06:35:22.444Z,7.1
2023-01-13T06:36:29.564Z,6.7
2023-01-13T06:37:36.569Z,8.3
2023-01-13T06:38:43.274Z,8.5
2023-01-13T06:39:50.493Z,7.7
2023-01-13T06:40:57.540Z,8
2023-01-13T06:42:04.701Z,9
2023-01-13T06:43:17.377Z,8.3
2023-01-13T06:44:24.028Z,8.3
2023-01-13T06:45:31.045Z,8.1
2023-01-13T06:46:38.253Z,8.7
2023-01-13T06:47:45.477Z,7.1
2023-01-13T06:48:52.441Z,8.8
2023-01-13T06:49:59.552Z,7.5
2023-01-13T06:51:06.668Z,7.2
2023-01-13T06:52:13.847Z,11.2
2023-01-13T06:53:20.991Z,6.4
2023-01-13T06:54:28.119Z,7
2023-01-13T06:55:35.163Z,7
2023-01-13T06:56:42.199Z,8.2
2023-01-13T06:57:49.357Z,9.2
2023-01-13T06:58:59.740Z,6.6
2023-01-13T07:00:06.805Z,7.2
2023-01-13T07:01:14.141Z,6.5
2023-01-13T07:02:21.308Z,6.5
2023-01-13T07:03:28.139Z,5.5
2023-01-13T07:04:35.272Z,8
2023-01-13T07:05:42.345Z,6.7
2023-01-13T07:06:54.545Z,7.1
2023-01-13T07:08:01.794Z,9.6
2023-01-13T07:09:08.819Z,7.7
2023-01-13T07:10:16.025Z,6.9
2023-01-13T07:11:23.084Z,7.3
2023-01-13T07:12:30.156Z,9.1
2023-01-13T07:13:37.271Z,8
2023-01-13T07:14:49.543Z,6.8
2023-01-13T07:16:01.787Z,8
2023-01-13T07:17:08.802Z,7.7
2023-01-13T07:18:15.954Z,10.4
2023-01-13T07:19:23.144Z,8.8
2023-01-13T07:20:30.295Z,8.1
2023-01-13T07:21:37.399Z,7.8
2023-01-13T07:22:44.449Z,8.8
2023-01-13T07:23:51.681Z,9.9
2023-01-13T07:24:58.709Z,10
2023-01-13T07:26:05.888Z,10.2
2023-01-13T07:27:12.981Z,9.8
2023-01-13T07:28:20.155Z,9.7
2023-01-13T07:29:27.227Z,10.9
2023-01-13T07:30:34.333Z,9.7
2023-01-13T07:31:41.478Z,7.8
2023-01-13T07:32:48.546Z,8.3
2023-01-13T07:33:55.688Z,9.3
2023-01-13T07:35:02.774Z,8.7
2023-01-13T07:36:10.414Z,7.6
2023-01-13T07:37:17.170Z,8.9
2023-01-13T07:38:24.298Z,9.1
2023-01-13T07:39:31.376Z,8.1
2023-01-13T07:40:38.453Z,9.8
2023-01-13T07:41:45.553Z,8.8
2023-01-13T07:42:57.770Z,8.8
2023-01-13T07:44:09.984Z,9.6
2023-01-13T07:45:17.188Z,10
2023-01-13T07:46:24.205Z,8
2023-01-13T07:47:31.304Z,8.4
2023-01-13T07:48:38.406Z,7.9
2023-01-13T07:49:45.575Z,9
2023-01-13T07:50:52.677Z,7.9
2023-01-13T07:51:59.891Z,8.2
2023-01-13T07:53:06.984Z,9.7
2023-01-13T07:54:14.057Z,9.7
2023-01-13T07:55:20.784Z,9.3
2023-01-13T07:56:28.098Z,9.5
2023-01-13T07:57:35.541Z,8.4
2023-01-13T07:58:42.571Z,9.3
2023-01-13T07:59:49.657Z,10.5
2023-01-13T08:00:56.400Z,7.5
2023-01-13T08:02:03.693Z,9.2
2023-01-13T08:03:10.643Z,9.3
2023-01-13T08:04:17.814Z,9.5
2023-01-13T08:05:24.886Z,8.2
2023-01-13T08:06:32.435Z,9.6
2023-01-13T08:07:39.522Z,8.1
2023-01-13T08:08:46.645Z,8.1
2023-01-13T08:09:53.814Z,9.1
2023-01-13T08:11:01.057Z,9
2023-01-13T08:12:07.940Z,10.3
2023-01-13T08:13:19.845Z,9.7
2023-01-13T08:14:26.841Z,11
2023-01-13T08:15:33.912Z,10
2023-01-13T08:16:41.169Z,10
2023-01-13T08:17:48.198Z,10.3
2023-01-13T08:18:54.977Z,10.7
2023-01-13T08:20:02.070Z,10.7
2023-01-13T08:21:09.140Z,10
2023-01-13T08:22:16.226Z,10.3
2023-01-13T08:23:23.328Z,9.4
2023-01-13T08:24:30.069Z,10
2023-01-13T08:25:37.138Z,10.4
2023-01-13T08:26:44.222Z,9.8
2023-01-13T08:27:51.340Z,9.7
2023-01-13T08:28:58.460Z,10
2023-01-13T08:30:05.604Z,10.4
2023-01-13T08:31:12.825Z,9.5
2023-01-13T08:32:19.870Z,9.3
2023-01-13T08:33:27.032Z,9.2
2023-01-13T08:34:34.070Z,10.2
2023-01-13T08:35:41.184Z,8.9
2023-01-13T08:36:48.282Z,9.6
2023-01-13T08:37:55.577Z,10.7
2023-01-13T08:39:02.530Z,9
2023-01-13T08:40:09.646Z,10.1
2023-01-13T08:41:16.931Z,8.4
2023-01-13T08:42:23.955Z,9.6
2023-01-13T08:43:31.037Z,8.8
2023-01-13T08:44:38.266Z,9.1
2023-01-13T08:45:45.256Z,9.3
2023-01-13T08:47:00.569Z,8.6
2023-01-13T08:48:07.787Z,9.2
2023-01-13T08:49:15.810Z,10.3
2023-01-13T08:50:22.984Z,10.1
2023-01-13T08:51:30.111Z,9.4
2023-01-13T08:52:37.111Z,9.8
2023-01-13T08:53:44.342Z,9.1
2023-01-13T08:54:51.718Z,8.7
2023-01-13T08:55:58.581Z,9.7
2023-01-13T08:57:05.756Z,9.2
2023-01-13T08:58:15.498Z,10
2023-01-13T08:59:20.000Z,9.1
2023-01-13T09:00:27.113Z,9
2023-01-13T09:01:34.349Z,9.6
2023-01-13T09:02:41.378Z,10
2023-01-13T09:03:48.388Z,8.6
2023-01-13T09:04:55.509Z,8.7
2023-01-13T09:06:02.071Z,10.7
2023-01-13T09:07:09.295Z,10
2023-01-13T09:08:16.455Z,9.2
2023-01-13T09:09:23.530Z,9.3
2023-01-13T09:10:30.553Z,8.7
2023-01-13T09:11:37.667Z,9.7
2023-01-13T09:12:49.973Z,9.7
2023-01-13T09:14:03.418Z,8.8
2023-01-13T09:15:09.284Z,9.4
2023-01-13T09:16:16.444Z,8.8
2023-01-13T09:17:23.584Z,8.3
2023-01-13T09:18:30.721Z,8.7
2023-01-13T09:19:37.775Z,9.2
2023-01-13T09:20:45.060Z,10.7
2023-01-13T09:21:51.941Z,8.8
2023-01-13T09:22:59.093Z,8.9
2023-01-13T09:24:05.784Z,11.2
2023-01-13T09:25:12.972Z,10.5
2023-01-13T09:26:20.020Z,10.7
2023-01-13T09:27:27.190Z,9.6
2023-01-13T09:28:34.272Z,10.7
2023-01-13T09:29:41.355Z,9.8
2023-01-13T09:30:48.575Z,9.8
2023-01-13T09:31:55.616Z,10.8
2023-01-13T09:33:02.731Z,12.8
2023-01-13T09:34:15.012Z,12.4
2023-01-13T09:35:27.264Z,13.2
2023-01-13T09:36:34.364Z,12.3
2023-01-13T09:37:41.508Z,12.2
2023-01-13T09:38:48.525Z,13.6
2023-01-13T09:39:56.771Z,13.8
2023-01-13T09:41:03.811Z,13.3
2023-01-13T09:42:10.533Z,14.2
2023-01-13T09:43:30.859Z,14.7
2023-01-13T09:44:43.008Z,12
2023-01-13T09:45:50.137Z,13.3
2023-01-13T09:46:57.258Z,11.2
2023-01-13T09:48:04.471Z,10.4
2023-01-13T09:49:16.475Z,13
2023-01-13T09:50:26.227Z,11.8
2023-01-13T09:51:43.577Z,11.6
2023-01-13T09:52:50.586Z,10.3
2023-01-13T09:53:57.785Z,9.4
2023-01-13T09:55:09.948Z,11.7
2023-01-13T09:56:22.102Z,10.7
2023-01-13T09:57:28.780Z,9.6
2023-01-13T09:58:35.884Z,9.7
2023-01-13T09:59:43.044Z,11.8
2023-01-13T10:00:50.112Z,11.4
2023-01-13T10:02:04.996Z,11.4
2023-01-13T10:03:22.260Z,11.9
2023-01-13T10:04:29.293Z,11.8
2023-01-13T10:05:36.382Z,9.6
2023-01-13T10:06:46.093Z,10.7
2023-01-13T10:07:53.115Z,10.5
2023-01-13T10:09:02.805Z,9.4
2023-01-13T10:10:09.998Z,9.5
2023-01-13T10:11:18.741Z,9
2023-01-13T10:12:31.400Z,9.6
2023-01-13T10:13:43.646Z,8.9
2023-01-13T10:14:51.353Z,9.3
2023-01-13T10:15:58.322Z,9.5
2023-01-13T10:17:08.526Z,8
2023-01-13T10:18:20.642Z,8.4
2023-01-13T10:19:35.400Z,10.5
2023-01-13T10:20:47.561Z,9.7
2023-01-13T10:22:02.744Z,10.6
2023-01-13T10:23:12.565Z,11.3
2023-01-13T10:24:24.763Z,13.8
2023-01-13T10:25:42.004Z,8.9
2023-01-13T10:26:59.321Z,10
2023-01-13T10:28:06.399Z,9.3
2023-01-13T10:29:18.586Z,9.6
2023-01-13T10:30:28.321Z,10.3
2023-01-13T10:31:41.382Z,10.4
2023-01-13T10:32:48.565Z,9.7
2023-01-13T10:33:55.686Z,9.4
2023-01-13T10:35:02.897Z,9.3
2023-01-13T10:36:10.109Z,7.2
2023-01-13T10:37:19.730Z,10.2
2023-01-13T10:38:29.328Z,8.5
2023-01-13T10:39:44.434Z,9
2023-01-13T10:40:51.529Z,11
2023-01-13T10:42:04.292Z,9
2023-01-13T10:43:11.432Z,7.4
2023-01-13T10:44:18.618Z,9.4
2023-01-13T10:45:25.863Z,10.1
2023-01-13T10:46:32.764Z,8
2023-01-13T10:47:39.799Z,9
2023-01-13T10:48:47.035Z,9
2023-01-13T10:49:57.212Z,8.8
2023-01-13T10:51:09.440Z,8.8
2023-01-13T10:52:24.311Z,8.2
2023-01-13T10:53:31.398Z,8.4
2023-01-13T10:54:38.374Z,8.2
2023-01-13T10:55:45.446Z,7.7
2023-01-13T10:57:00.690Z,8.3
2023-01-13T10:58:15.501Z,8.7
2023-01-13T10:59:22.739Z,10.4
2023-01-13T11:00:32.280Z,11.6
2023-01-13T11:01:39.764Z,9.2
2023-01-13T11:02:46.539Z,10.9
2023-01-13T11:03:53.729Z,8.6
2023-01-13T11:05:00.869Z,8.1
2023-01-13T11:06:13.010Z,11
2023-01-13T11:07:27.513Z,9
2023-01-13T11:08:42.498Z,9.7
2023-01-13T11:09:49.659Z,11.8
2023-01-13T11:11:04.374Z,10.8
2023-01-13T11:12:11.028Z,10.9
2023-01-13T11:13:28.485Z,12.2
2023-01-13T11:14:35.404Z,11.2
2023-01-13T11:15:45.183Z,10.5
2023-01-13T11:17:02.447Z,8.8
2023-01-13T11:18:09.666Z,8.8
2023-01-13T11:19:16.747Z,10.8
2023-01-13T11:20:23.924Z,9.5
2023-01-13T11:21:33.526Z,11.1
2023-01-13T11:22:50.829Z,8.8
2023-01-13T11:23:57.923Z,9.9
2023-01-13T11:25:07.679Z,9.2
2023-01-13T11:26:14.795Z,9.2
2023-01-13T11:27:24.348Z,10.6
2023-01-13T11:28:41.680Z,10.4
2023-01-13T11:29:53.915Z,9.5
2023-01-13T11:31:11.293Z,11
2023-01-13T11:32:18.368Z,10.8
2023-01-13T11:33:25.408Z,14.9
2023-01-13T11:34:42.765Z,14.5
2023-01-13T11:35:49.876Z,14.1
2023-01-13T11:37:02.071Z,11.9
2023-01-13T11:38:17.347Z,10.1
2023-01-13T11:39:29.571Z,9.5
2023-01-13T11:40:41.754Z,9.7
2023-01-13T11:41:49.063Z,9.8
2023-01-13T11:42:59.151Z,8.7
2023-01-13T11:44:13.865Z,12.5
2023-01-13T11:45:26.116Z,9
2023-01-13T11:46:35.727Z,10
2023-01-13T11:47:42.851Z,10.6
2023-01-13T11:48:50.027Z,9.6
2023-01-13T11:49:57.165Z,9.2
2023-01-13T11:51:04.344Z,9.1
2023-01-13T11:52:16.612Z,10.3
2023-01-13T11:53:26.728Z,12.3
2023-01-13T11:54:43.942Z,11.3
2023-01-13T11:55:56.177Z,10.5
2023-01-13T11:57:08.472Z,9
2023-01-13T11:58:23.690Z,9.9
2023-01-13T11:59:38.931Z,11.3
2023-01-13T12:00:51.205Z,13.2
2023-01-13T12:02:08.547Z,11.1
2023-01-13T12:03:20.797Z,11.9
2023-01-13T12:04:33.469Z,10.4
2023-01-13T12:05:50.694Z,10.5
2023-01-13T12:07:02.910Z,9.8
2023-01-13T12:08:15.787Z,11.8
2023-01-13T12:09:27.943Z,10.4
2023-01-13T12:10:43.104Z,10.9
2023-01-13T12:11:58.582Z,11.8
2023-01-13T12:13:16.119Z,11.6
2023-01-13T12:14:28.313Z,13.1
2023-01-13T12:15:43.598Z,11
2023-01-13T12:17:01.364Z,11.8
2023-01-13T12:18:07.563Z,10.8
2023-01-13T12:19:24.915Z,10.4
2023-01-13T12:20:34.995Z,10.4
2023-01-13T12:21:52.264Z,10
2023-01-13T12:23:02.426Z,11.9
2023-01-13T12:24:09.490Z,12.8
2023-01-13T12:25:16.578Z,13.2
2023-01-13T12:26:23.760Z,10.7
2023-01-13T12:27:31.047Z,12.5
2023-01-13T12:28:40.597Z,11.7
2023-01-13T12:29:57.764Z,11.7
2023-01-13T12:31:04.952Z,11.5
2023-01-13T12:32:12.163Z,10.4
2023-01-13T12:33:21.713Z,9.4
2023-01-13T12:34:38.876Z,9.6
2023-01-13T12:35:56.217Z,10.2
2023-01-13T12:37:13.630Z,9.1
2023-01-13T12:38:26.036Z,10.5
2023-01-13T12:39:38.399Z,11.1
2023-01-13T12:40:53.105Z,10.1
2023-01-13T12:42:10.496Z,12.5
2023-01-13T12:43:27.784Z,9.9
2023-01-13T12:44:39.923Z,11.8
2023-01-13T12:45:57.253Z,10.3
2023-01-13T12:47:14.575Z,11.4
2023-01-13T12:48:31.865Z,9
2023-01-13T12:49:49.124Z,10.1
2023-01-13T12:50:56.384Z,10.2
2023-01-13T12:52:06.500Z,11.6
2023-01-13T12:53:16.790Z,11.6
2023-01-13T12:54:31.944Z,10.9
2023-01-13T12:55:44.121Z,11.4
2023-01-13T12:56:54.239Z,10.1
2023-01-13T12:58:01.410Z,10.1
2023-01-13T12:59:08.508Z,10.1
2023-01-13T13:00:20.770Z,10.6
2023-01-13T13:01:27.896Z,9.7
2023-01-13T13:02:38.028Z,8.4
2023-01-13T13:03:45.209Z,9.7
2023-01-13T13:05:02.931Z,10.8
2023-01-13T13:06:18.223Z,12.7
2023-01-13T13:07:25.314Z,9.9
2023-01-13T13:08:40.626Z,13.9
2023-01-13T13:09:52.849Z,10.3
2023-01-13T13:11:02.913Z,9.3
2023-01-13T13:12:15.208Z,9.8
2023-01-13T13:13:35.482Z,9.8
2023-01-13T13:14:42.695Z,9.8
2023-01-13T13:15:49.843Z,9
2023-01-13T13:16:56.977Z,9.9
2023-01-13T13:18:04.298Z,10.3
2023-01-13T13:19:21.835Z,9.9
2023-01-13T13:20:29.133Z,11.9
2023-01-13T13:21:41.186Z,13.1
2023-01-13T13:22:58.529Z,10.6
2023-01-13T13:24:05.685Z,10.4
2023-01-13T13:25:12.761Z,9.2
2023-01-13T13:26:22.338Z,9.8
2023-01-13T13:27:34.547Z,10.7
2023-01-13T13:28:41.683Z,8.3
2023-01-13T13:29:51.918Z,8.3
2023-01-13T13:31:05.137Z,10.3
2023-01-13T13:32:17.343Z,9.4
2023-01-13T13:33:29.509Z,11.7
2023-01-13T13:34:36.546Z,9.8
2023-01-13T13:35:48.732Z,10.2
2023-01-13T13:36:58.999Z,10.1
2023-01-13T13:38:08.676Z,11.3
2023-01-13T13:39:31.140Z,9.8
2023-01-13T13:40:43.255Z,8.8
2023-01-13T13:41:55.599Z,11.1
2023-01-13T13:43:07.799Z,11.5
2023-01-13T13:44:19.960Z,10
2023-01-13T13:45:40.476Z,9.4
2023-01-13T13:46:52.520Z,12.8
2023-01-13T13:47:59.539Z,11.2
2023-01-13T13:49:16.935Z,10.2
2023-01-13T13:50:24.032Z,11.2
2023-01-13T13:51:31.149Z,10.3
2023-01-13T13:52:38.272Z,11.5
2023-01-13T13:53:48.402Z,11.5
2023-01-13T13:54:55.657Z,11.7
2023-01-13T13:56:02.818Z,10
2023-01-13T13:57:09.775Z,10.1
2023-01-13T13:58:22.609Z,12
2023-01-13T13:59:29.748Z,11.9
2023-01-13T14:00:36.731Z,12.4
2023-01-13T14:01:44.047Z,10
2023-01-13T14:02:51.127Z,10.1
2023-01-13T14:04:00.756Z,16.6
2023-01-13T14:05:07.890Z,13
2023-01-13T14:06:18.096Z,12.4
2023-01-13T14:07:25.230Z,11.1
2023-01-13T14:08:32.237Z,13.8
2023-01-13T14:09:39.377Z,13.1
2023-01-13T14:10:49.152Z,11.5
2023-01-13T14:11:56.190Z,13.4
2023-01-13T14:13:03.386Z,24.1
2023-01-13T14:14:21.175Z,16
2023-01-13T14:15:28.327Z,13.4
2023-01-13T14:16:38.447Z,12.4
2023-01-13T14:17:45.494Z,13.2
2023-01-13T14:18:52.688Z,19.9
2023-01-13T14:19:59.782Z,17.2
2023-01-13T14:21:06.994Z,17.6
2023-01-13T14:22:19.221Z,13.8
2023-01-13T14:23:26.434Z,15.2
2023-01-13T14:24:33.303Z,17.8
2023-01-13T14:25:40.445Z,15.2
2023-01-13T14:26:50.230Z,13.7
2023-01-13T14:27:57.249Z,17.7
2023-01-13T14:29:14.632Z,14.3
2023-01-13T14:30:27.782Z,17.3
2023-01-13T14:31:34.851Z,12.4
2023-01-13T14:32:42.052Z,11.1
2023-01-13T14:33:49.158Z,13
2023-01-13T14:34:58.789Z,13.1
2023-01-13T14:36:05.888Z,10.6
2023-01-13T14:37:18.117Z,8.7
2023-01-13T14:38:35.327Z,9.9
2023-01-13T14:39:42.500Z,10.8
2023-01-13T14:40:49.831Z,9.3
2023-01-13T14:41:56.771Z,10.3
2023-01-13T14:43:03.822Z,9.9
2023-01-13T14:44:17.209Z,11.6
2023-01-13T14:45:30.338Z,11.8
2023-01-13T14:46:37.654Z,11.1
2023-01-13T14:47:44.604Z,10.9
2023-01-13T14:48:51.689Z,11
2023-01-13T14:50:03.977Z,9.7
2023-01-13T14:51:13.633Z,9.8
2023-01-13T14:52:23.825Z,11
2023-01-13T14:53:30.937Z,11.1
2023-01-13T14:54:41.048Z,10.7
2023-01-13T14:55:53.288Z,11.3
2023-01-13T14:57:00.395Z,10.6
2023-01-13T14:58:15.180Z,10.6
2023-01-13T14:59:25.319Z,11.1
2023-01-13T15:00:37.543Z,9.7
2023-01-13T15:01:44.748Z,9.3
2023-01-13T15:02:52.019Z,8.6
2023-01-13T15:04:02.086Z,10.2
2023-01-13T15:05:19.841Z,9.2
2023-01-13T15:06:29.509Z,8.8
2023-01-13T15:07:36.557Z,9.5
2023-01-13T15:08:43.680Z,8.7
2023-01-13T15:09:50.746Z,10.2
2023-01-13T15:10:57.921Z,9.9
2023-01-13T15:12:08.794Z,9.5
2023-01-13T15:13:15.856Z,10
2023-01-13T15:14:29.033Z,9.7
2023-01-13T15:15:36.180Z,11.1
2023-01-13T15:16:43.222Z,10.3
2023-01-13T15:17:50.320Z,13.3
2023-01-13T15:18:57.503Z,13.2
2023-01-13T15:20:04.578Z,11.3
2023-01-13T15:21:11.828Z,13.1
2023-01-13T15:22:19.087Z,12.2
2023-01-13T15:23:26.492Z,12.2
2023-01-13T15:24:33.572Z,12.7
2023-01-13T15:25:40.724Z,13.6
2023-01-13T15:26:47.889Z,13.7
2023-01-13T15:27:55.128Z,13
2023-01-13T15:29:02.160Z,11.4
2023-01-13T15:30:09.325Z,11.6
2023-01-13T15:31:19.526Z,8.2
2023-01-13T15:32:26.645Z,9
2023-01-13T15:33:33.765Z,10.6
2023-01-13T15:34:40.929Z,10.5
2023-01-13T15:35:48.094Z,9.6
2023-01-13T15:36:55.152Z,8.5
2023-01-13T15:38:02.298Z,9.8
2023-01-13T15:39:09.383Z,9.6
2023-01-13T15:40:16.530Z,8.9
2023-01-13T15:41:26.744Z,9.2
2023-01-13T15:42:38.877Z,8.8
2023-01-13T15:43:51.150Z,10.1
2023-01-13T15:45:01.346Z,9.9
2023-01-13T15:46:16.592Z,10.8
2023-01-13T15:47:28.810Z,12.2
2023-01-13T15:48:35.908Z,11.5